Time;durP1;ratioP1;P1;durP2;ratioP2;P2;SDS_P1;SDS_P2;PMS_P1;PMS_P2;Temp;Humidity;BMP_temperature;BMP_pressure;BME280_temperature;BME280_humidity;BME280_pressure;Samples;Min_cycle;Max_cycle;Signal;HPM_P1;HPM_P2
2022/05/17 00:02:14;;;;;;;7.75;3.45;;;19.10;58.20;;;;;;5042500;28;20053;-50
2022/05/17 00:04:41;;;;;;;7.55;4.10;;;19.10;58.20;;;;;;5043427;28;20056;-51
2022/05/17 00:07:11;;;;;;;6.53;3.03;;;19.10;58.30;;;;;;5043789;28;20060;-48
2022/05/17 00:09:39;;;;;;;6.55;3.40;;;19.10;58.20;;;;;;5044442;28;20436;-50
2022/05/17 00:12:07;;;;;;;6.88;3.15;;;19.10;58.20;;;;;;5043644;28;20398;-49
2022/05/17 00:14:35;;;;;;;5.53;2.42;;;19.00;58.00;;;;;;5044799;28;20976;-53
2022/05/17 00:17:03;;;;;;;4.00;2.60;;;19.00;58.00;;;;;;5043390;28;20416;-51
2022/05/17 00:19:31;;;;;;;5.60;2.85;;;19.00;57.90;;;;;;5043983;28;20052;-50
2022/05/17 00:21:59;;;;;;;8.82;2.78;;;19.00;57.80;;;;;;5043592;28;20218;-48
2022/05/17 00:24:28;;;;;;;6.60;2.65;;;19.00;57.90;;;;;;5043934;28;20057;-49
2022/05/17 00:26:55;;;;;;;7.43;2.90;;;18.90;57.80;;;;;;5042988;28;20056;-52
2022/05/17 00:29:23;;;;;;;6.35;2.85;;;19.00;57.80;;;;;;5043503;28;20064;-51
2022/05/17 00:31:50;;;;;;;4.65;2.70;;;18.90;57.70;;;;;;5041586;28;20063;-50
2022/05/17 00:34:18;;;;;;;5.38;2.85;;;18.90;57.80;;;;;;5043300;28;20072;-48
2022/05/17 00:36:45;;;;;;;4.65;2.45;;;19.00;58.00;;;;;;5043630;28;20075;-53
2022/05/17 00:39:13;;;;;;;9.48;3.03;;;18.90;58.20;;;;;;5044754;28;20366;-53
2022/05/17 00:41:42;;;;;;;8.45;3.00;;;18.90;58.00;;;;;;5042609;28;20071;-52
2022/05/17 00:46:58;;;;;;;5.75;2.80;;;18.90;57.90;;;;;;5048924;28;20539;-48
2022/05/17 00:49:30;;;;;;;6.78;3.03;;;18.80;57.70;;;;;;5042872;28;20059;-52
2022/05/17 00:52:02;;;;;;;9.40;3.60;;;18.80;57.60;;;;;;5043387;28;20633;-52
2022/05/17 00:54:31;;;;;;;5.30;3.05;;;18.80;57.60;;;;;;5043332;28;20068;-49
2022/05/17 00:57:07;;;;;;;11.85;3.40;;;18.80;57.70;;;;;;5042883;28;20407;-49
2022/05/17 00:59:36;;;;;;;9.95;3.47;;;18.80;57.70;;;;;;5043263;28;20057;-52
2022/05/17 01:02:06;;;;;;;4.18;3.10;;;18.70;57.60;;;;;;5041402;28;20052;-50
2022/05/17 01:04:34;;;;;;;7.30;3.35;;;18.70;57.60;;;;;;5043265;28;20424;-50
2022/05/17 01:07:06;;;;;;;5.40;3.03;;;18.70;57.70;;;;;;5044273;28;20049;-53
2022/05/17 01:09:34;;;;;;;2.95;2.67;;;18.70;57.90;;;;;;5041991;28;20052;-52
2022/05/17 01:12:03;;;;;;;6.20;3.53;;;18.70;57.90;;;;;;5041642;28;20049;-52
2022/05/17 01:17:15;;;;;;;6.28;3.53;;;18.60;57.90;;;;;;5049025;28;20063;-52
2022/05/17 01:19:44;;;;;;;7.03;3.33;;;18.60;57.90;;;;;;5043523;28;20056;-52
2022/05/17 01:22:13;;;;;;;6.93;3.17;;;18.60;58.00;;;;;;5042920;28;20056;-49
2022/05/17 01:24:40;;;;;;;5.97;3.05;;;18.50;58.00;;;;;;5042538;28;20053;-55
2022/05/17 01:27:14;;;;;;;9.15;3.35;;;18.50;58.00;;;;;;5040995;28;20045;-52
2022/05/17 01:29:43;;;;;;;5.63;3.20;;;18.50;58.20;;;;;;5042682;28;20587;-49
2022/05/17 01:32:12;;;;;;;8.63;3.58;;;18.40;58.10;;;;;;5041587;28;20420;-53
2022/05/17 01:34:40;;;;;;;8.88;3.72;;;18.40;58.30;;;;;;5042093;28;20421;-51
2022/05/17 01:37:09;;;;;;;6.63;3.25;;;18.30;58.30;;;;;;5041499;28;20052;-50
2022/05/17 01:39:38;;;;;;;5.95;2.88;;;18.30;58.20;;;;;;5042105;28;20075;-49
2022/05/17 01:42:06;;;;;;;5.50;3.50;;;18.20;58.30;;;;;;5043684;28;20119;-52
2022/05/17 01:44:34;;;;;;;3.72;2.97;;;18.20;58.40;;;;;;5041843;28;20431;-53
2022/05/17 01:47:01;;;;;;;5.43;3.25;;;18.10;58.40;;;;;;5042194;28;20052;-51
2022/05/17 01:49:29;;;;;;;6.95;3.13;;;18.10;58.50;;;;;;5041450;28;20397;-51
2022/05/17 01:51:56;;;;;;;5.20;3.20;;;18.00;58.50;;;;;;5041664;28;20073;-52
2022/05/17 01:54:24;;;;;;;4.55;2.65;;;18.00;58.50;;;;;;5040959;28;20057;-48
2022/05/17 01:56:53;;;;;;;4.70;2.90;;;18.00;58.50;;;;;;5040740;28;20114;-49
2022/05/17 01:59:20;;;;;;;11.18;3.42;;;17.90;58.60;;;;;;5042296;28;20496;-52
2022/05/17 02:01:47;;;;;;;6.10;3.63;;;17.90;59.10;;;;;;5040581;28;20052;-51
2022/05/17 02:04:15;;;;;;;7.10;3.75;;;17.80;58.70;;;;;;5040787;28;20052;-49
2022/05/17 02:06:43;;;;;;;7.57;3.78;;;17.80;58.90;;;;;;5042274;28;20056;-52
2022/05/17 02:09:10;;;;;;;4.35;3.08;;;17.80;59.00;;;;;;5042589;28;20535;-48
2022/05/17 02:11:38;;;;;;;10.27;2.97;;;17.70;59.10;;;;;;5040853;28;20063;-48
2022/05/17 02:14:08;;;;;;;6.65;3.38;;;17.70;59.10;;;;;;5040767;28;20041;-53
2022/05/17 02:16:37;;;;;;;7.43;3.67;;;17.70;59.20;;;;;;5041172;28;20793;-49
2022/05/17 02:19:06;;;;;;;5.80;2.75;;;17.60;59.20;;;;;;5040370;28;20053;-51
2022/05/17 02:21:34;;;;;;;4.18;2.90;;;17.60;59.30;;;;;;5041250;28;20418;-50
2022/05/17 02:24:01;;;;;;;6.68;3.28;;;17.60;59.30;;;;;;5044942;28;20056;-52
2022/05/17 02:26:29;;;;;;;8.88;3.42;;;17.50;59.30;;;;;;5046122;28;20485;-51
2022/05/17 02:28:57;;;;;;;6.40;3.30;;;17.50;59.30;;;;;;5046689;28;20053;-48
2022/05/17 02:31:26;;;;;;;4.53;3.40;;;17.50;59.30;;;;;;5045347;28;20049;-52
2022/05/17 02:33:54;;;;;;;5.18;3.33;;;17.40;59.40;;;;;;5042718;28;20449;-50
2022/05/17 02:36:22;;;;;;;7.30;3.67;;;17.40;59.50;;;;;;5044091;28;20061;-49
2022/05/17 02:38:49;;;;;;;7.45;3.38;;;17.30;59.50;;;;;;5042714;28;20499;-52
2022/05/17 02:41:19;;;;;;;6.03;3.17;;;17.30;59.60;;;;;;5044609;28;20048;-51
2022/05/17 02:43:46;;;;;;;8.50;3.65;;;17.30;59.70;;;;;;5043838;28;20056;-51
2022/05/17 02:46:14;;;;;;;5.95;3.50;;;17.30;59.80;;;;;;5044593;28;20057;-52
2022/05/17 02:48:43;;;;;;;7.63;3.63;;;17.30;59.90;;;;;;5003085;28;1159408;-49
2022/05/17 02:51:12;;;;;;;7.65;4.50;;;17.20;60.00;;;;;;5045933;28;20393;-49
2022/05/17 02:53:40;;;;;;;6.90;3.67;;;17.20;60.00;;;;;;5044632;28;20437;-51
2022/05/17 02:56:08;;;;;;;5.95;4.07;;;17.20;60.10;;;;;;5044759;28;20053;-52
2022/05/17 02:58:35;;;;;;;7.00;3.55;;;17.10;60.10;;;;;;5045623;28;20064;-48
2022/05/17 03:01:04;;;;;;;10.27;4.32;;;17.10;60.10;;;;;;5046476;28;20488;-52
2022/05/17 03:03:31;;;;;;;6.72;3.70;;;17.10;60.20;;;;;;5043800;28;20053;-55
2022/05/17 03:06:00;;;;;;;5.03;3.28;;;17.10;60.30;;;;;;5045048;28;20512;-48
2022/05/17 03:08:28;;;;;;;5.40;2.83;;;17.10;60.40;;;;;;5045771;28;20057;-49
2022/05/17 03:10:55;;;;;;;4.55;2.97;;;17.10;60.30;;;;;;5046658;28;20420;-54
2022/05/17 03:13:23;;;;;;;10.80;2.85;;;17.00;60.30;;;;;;5044361;28;20053;-49
2022/05/17 03:15:51;;;;;;;7.60;3.30;;;17.00;60.30;;;;;;5045186;28;20053;-48
2022/05/17 03:18:19;;;;;;;5.53;3.22;;;17.00;60.30;;;;;;5044201;28;20061;-51
2022/05/17 03:20:49;;;;;;;5.65;3.10;;;16.90;60.20;;;;;;5045086;28;20053;-47
2022/05/17 03:23:17;;;;;;;5.57;3.53;;;16.90;60.40;;;;;;5045004;28;20053;-49
2022/05/17 03:25:45;;;;;;;7.13;3.50;;;16.90;60.40;;;;;;5045299;28;20053;-52
2022/05/17 03:28:14;;;;;;;5.15;3.25;;;16.90;60.40;;;;;;5044364;28;20048;-49
2022/05/17 03:30:42;;;;;;;5.78;4.03;;;16.90;60.70;;;;;;5045356;28;20436;-53
2022/05/17 03:33:10;;;;;;;7.35;3.60;;;16.80;60.70;;;;;;5042397;28;20052;-52
2022/05/17 03:35:38;;;;;;;5.38;3.53;;;16.80;60.70;;;;;;5044585;28;20519;-51
2022/05/17 03:38:05;;;;;;;6.72;3.65;;;16.80;60.80;;;;;;5044798;28;20049;-50
2022/05/17 03:40:34;;;;;;;5.53;3.65;;;16.80;60.80;;;;;;5045011;28;20068;-51
2022/05/17 03:43:02;;;;;;;5.75;3.38;;;16.70;60.90;;;;;;5043774;28;20060;-48
2022/05/17 03:45:29;;;;;;;5.60;3.30;;;16.70;60.90;;;;;;5046474;28;20477;-50
2022/05/17 03:47:57;;;;;;;4.88;3.30;;;16.70;61.00;;;;;;5043041;28;20072;-51
2022/05/17 03:50:24;;;;;;;7.47;3.58;;;16.70;61.10;;;;;;5044640;28;20099;-50
2022/05/17 03:52:52;;;;;;;4.82;3.50;;;16.70;61.20;;;;;;5042816;28;20064;-52
2022/05/17 03:55:21;;;;;;;5.03;3.45;;;16.60;61.10;;;;;;5045282;28;20477;-49
2022/05/17 03:57:50;;;;;;;5.80;3.75;;;16.60;61.00;;;;;;5043744;28;20492;-49
2022/05/17 04:00:21;;;;;;;5.18;3.00;;;16.60;61.10;;;;;;5044608;28;20053;-48
2022/05/17 04:02:49;;;;;;;6.70;3.10;;;16.60;61.00;;;;;;5041470;28;20060;-49
2022/05/17 04:05:18;;;;;;;5.95;3.10;;;16.60;61.10;;;;;;5043619;28;20057;-48
2022/05/17 04:07:46;;;;;;;7.57;2.83;;;16.60;61.10;;;;;;5043718;28;20048;-52
2022/05/17 04:10:15;;;;;;;7.38;3.13;;;16.60;61.10;;;;;;5044428;28;20476;-48
2022/05/17 04:12:44;;;;;;;9.18;3.58;;;16.50;61.00;;;;;;5045098;28;20068;-50
2022/05/17 04:15:15;;;;;;;6.30;2.92;;;16.50;61.00;;;;;;5043612;28;20111;-49
2022/05/17 04:17:43;;;;;;;5.78;3.17;;;16.50;61.10;;;;;;5043136;28;20051;-50
2022/05/17 04:20:12;;;;;;;5.10;2.55;;;16.50;61.10;;;;;;5044496;28;20060;-53
2022/05/17 04:22:43;;;;;;;4.45;2.30;;;16.50;61.10;;;;;;5045722;28;20412;-52
2022/05/17 04:25:12;;;;;;;3.30;2.40;;;16.50;61.10;;;;;;5041105;28;20084;-51
2022/05/17 04:27:41;;;;;;;5.18;2.53;;;16.50;61.20;;;;;;5044050;28;20049;-50
2022/05/17 04:30:10;;;;;;;3.88;2.80;;;16.50;61.50;;;;;;5027435;28;20421;-50
2022/05/17 04:32:40;;;;;;;39.78;20.92;;;16.50;61.70;;;;;;5042682;28;20832;-52
2022/05/17 04:35:08;;;;;;;51.63;25.92;;;16.50;61.90;;;;;;5044156;28;20053;-55
2022/05/17 04:37:36;;;;;;;17.83;9.65;;;16.50;61.90;;;;;;5044545;28;20417;-50
2022/05/17 04:40:05;;;;;;;9.23;4.32;;;16.50;61.90;;;;;;5043700;28;20060;-51
2022/05/17 04:42:32;;;;;;;4.72;2.67;;;16.50;62.00;;;;;;5044249;28;20067;-50
2022/05/17 04:45:00;;;;;;;4.05;2.28;;;16.50;62.10;;;;;;5043288;28;20136;-51
2022/05/17 04:47:28;;;;;;;4.95;2.20;;;16.50;62.00;;;;;;5042454;28;20063;-53
2022/05/17 04:49:57;;;;;;;3.92;2.35;;;16.60;62.10;;;;;;5042390;28;20053;-53
2022/05/17 04:52:25;;;;;;;4.68;2.25;;;16.60;62.20;;;;;;5043930;28;20060;-48
2022/05/17 04:54:52;;;;;;;6.38;2.28;;;16.60;62.20;;;;;;5043455;28;20436;-49
2022/05/17 04:57:20;;;;;;;3.08;2.10;;;16.60;62.20;;;;;;5043807;28;20053;-51
2022/05/17 04:59:47;;;;;;;4.22;3.20;;;16.60;62.20;;;;;;5045430;28;20065;-50
2022/05/17 05:02:15;;;;;;;2.80;2.08;;;16.70;62.40;;;;;;5042115;28;20056;-47
2022/05/17 05:04:42;;;;;;;6.22;3.70;;;16.70;62.40;;;;;;5043645;28;20056;-49
2022/05/17 05:07:11;;;;;;;7.78;2.88;;;16.70;62.40;;;;;;5042900;28;20053;-47
2022/05/17 05:09:39;;;;;;;3.38;2.20;;;16.80;62.60;;;;;;5043556;28;20068;-50
2022/05/17 05:12:07;;;;;;;3.10;2.00;;;16.80;62.70;;;;;;5042536;28;20424;-51
2022/05/17 05:14:34;;;;;;;4.95;1.77;;;16.80;62.90;;;;;;5042557;28;20412;-48
2022/05/17 05:17:02;;;;;;;2.42;1.70;;;16.90;63.10;;;;;;5042193;28;20059;-53
2022/05/17 05:19:29;;;;;;;7.68;1.65;;;16.90;63.30;;;;;;5042894;28;20053;-50
2022/05/17 05:21:57;;;;;;;2.70;1.60;;;17.00;63.40;;;;;;5044095;28;20481;-53
2022/05/17 05:24:26;;;;;;;4.10;1.83;;;17.00;63.30;;;;;;5042819;28;20064;-53
2022/05/17 05:26:53;;;;;;;3.28;1.90;;;17.00;63.30;;;;;;5042803;28;20094;-53
2022/05/17 05:29:21;;;;;;;2.38;1.63;;;17.10;63.30;;;;;;5042468;28;20091;-50
2022/05/17 05:31:49;;;;;;;1.95;1.50;;;17.20;63.20;;;;;;5041413;28;20049;-53
2022/05/17 05:34:17;;;;;;;3.30;1.80;;;17.20;63.10;;;;;;5043765;28;20053;-52
2022/05/17 05:36:46;;;;;;;5.15;1.70;;;17.30;63.00;;;;;;5037362;28;20063;-48
2022/05/17 05:39:15;;;;;;;2.47;1.25;;;17.30;63.20;;;;;;5039463;28;20410;-50
2022/05/17 05:41:44;;;;;;;2.10;1.52;;;17.40;63.20;;;;;;5040371;28;20049;-53
2022/05/17 05:44:11;;;;;;;2.17;1.40;;;17.40;63.30;;;;;;5044455;28;20497;-50
2022/05/17 05:46:39;;;;;;;2.35;1.40;;;17.40;63.20;;;;;;5041479;28;20496;-50
2022/05/17 05:49:06;;;;;;;2.10;1.58;;;17.50;63.30;;;;;;5039534;28;20053;-51
2022/05/17 05:51:34;;;;;;;2.28;1.40;;;17.60;63.50;;;;;;5042317;28;20056;-53
2022/05/17 05:54:01;;;;;;;2.53;1.48;;;17.60;63.40;;;;;;5042145;28;20053;-52
2022/05/17 05:56:29;;;;;;;2.85;1.50;;;17.70;63.50;;;;;;5042724;28;20056;-50
2022/05/17 05:58:57;;;;;;;3.53;1.30;;;17.70;63.50;;;;;;5042029;28;20423;-51
2022/05/17 06:01:26;;;;;;;2.17;1.55;;;17.80;63.60;;;;;;5042771;28;20056;-53
2022/05/17 06:03:53;;;;;;;2.72;1.42;;;17.80;63.50;;;;;;5040317;28;20444;-49
2022/05/17 06:06:21;;;;;;;2.55;1.63;;;17.90;63.50;;;;;;5042449;28;20056;-54
2022/05/17 06:08:49;;;;;;;1.98;1.60;;;18.00;63.60;;;;;;5041785;28;20044;-50
2022/05/17 06:11:16;;;;;;;1.58;1.40;;;18.00;63.60;;;;;;5041403;28;20057;-49
2022/05/17 06:13:44;;;;;;;2.67;1.70;;;18.10;63.70;;;;;;5042663;28;20060;-49
2022/05/17 06:16:12;;;;;;;3.25;2.20;;;18.20;63.60;;;;;;5042743;28;20052;-51
2022/05/17 06:18:40;;;;;;;4.60;1.60;;;18.20;63.60;;;;;;5039454;28;20052;-50
2022/05/17 06:21:08;;;;;;;2.97;1.80;;;18.30;63.60;;;;;;5041904;28;20508;-51
2022/05/17 06:23:36;;;;;;;1.85;1.60;;;18.30;63.50;;;;;;5041952;28;20060;-49
2022/05/17 06:26:04;;;;;;;2.67;1.65;;;18.40;63.50;;;;;;5042285;28;20053;-48
2022/05/17 06:28:32;;;;;;;2.08;1.60;;;18.40;63.60;;;;;;5040831;28;20056;-54
2022/05/17 06:30:59;;;;;;;2.47;1.95;;;18.50;63.50;;;;;;5041362;28;20045;-53
2022/05/17 06:33:29;;;;;;;3.50;1.70;;;18.50;63.50;;;;;;5040694;28;20053;-52
2022/05/17 06:35:57;;;;;;;4.72;2.53;;;18.60;63.70;;;;;;5043004;28;20064;-51
2022/05/17 06:38:24;;;;;;;3.55;2.42;;;18.60;63.70;;;;;;5041889;28;20053;-51
2022/05/17 06:40:53;;;;;;;2.47;1.75;;;18.70;63.70;;;;;;5042333;28;20386;-52
2022/05/17 06:43:20;;;;;;;4.80;2.80;;;18.80;63.70;;;;;;5040752;28;20416;-52
2022/05/17 06:45:50;;;;;;;2.53;1.98;;;18.80;63.90;;;;;;5043009;28;20064;-52
2022/05/17 06:48:18;;;;;;;2.90;2.10;;;18.80;64.00;;;;;;5039735;28;20052;-51
2022/05/17 06:50:47;;;;;;;7.72;2.40;;;18.90;64.70;;;;;;5040184;28;20059;-52
2022/05/17 06:53:14;;;;;;;3.28;2.10;;;19.00;64.10;;;;;;5040950;28;20056;-50
2022/05/17 06:55:42;;;;;;;5.63;2.72;;;19.00;63.90;;;;;;5041538;28;20053;-48
2022/05/17 06:58:09;;;;;;;4.70;2.63;;;19.10;64.10;;;;;;5039220;28;20059;-50
2022/05/17 07:00:37;;;;;;;4.15;2.35;;;19.20;64.20;;;;;;5041054;28;20048;-49
2022/05/17 07:03:04;;;;;;;3.00;2.42;;;19.30;64.40;;;;;;5039751;28;20063;-51
2022/05/17 07:05:32;;;;;;;8.40;3.22;;;19.30;64.10;;;;;;5040855;28;20060;-51
2022/05/17 07:08:03;;;;;;;32.45;16.23;;;19.50;64.30;;;;;;5043222;28;20052;-49
2022/05/17 07:13:16;;;;;;;15.75;8.13;;;19.60;64.10;;;;;;5051125;28;20075;-48
2022/05/17 07:15:46;;;;;;;9.40;4.07;;;19.70;63.80;;;;;;5047600;28;20049;-51
2022/05/17 07:18:17;;;;;;;15.98;3.70;;;19.80;63.70;;;;;;5044362;28;20053;-52
2022/05/17 07:20:45;;;;;;;4.78;2.97;;;19.90;63.60;;;;;;5045745;28;20061;-51
2022/05/17 07:23:15;;;;;;;9.88;3.55;;;20.00;63.50;;;;;;5044296;28;20508;-52
2022/05/17 07:25:44;;;;;;;4.63;3.25;;;20.10;63.70;;;;;;5041205;28;20731;-49
2022/05/17 07:28:17;;;;;;;5.18;2.85;;;20.20;63.60;;;;;;5044076;28;20607;-48
2022/05/17 07:30:44;;;;;;;4.90;3.20;;;20.20;63.40;;;;;;5042587;28;20049;-52
2022/05/17 07:33:12;;;;;;;7.50;3.50;;;20.30;63.40;;;;;;5042356;28;20049;-52
2022/05/17 07:35:39;;;;;;;5.22;3.63;;;20.40;63.30;;;;;;5045413;28;20058;-51
2022/05/17 07:38:07;;;;;;;6.20;3.78;;;20.50;63.20;;;;;;5044472;28;20053;-48
2022/05/17 07:40:36;;;;;;;7.18;3.92;;;20.50;63.30;;;;;;5042315;28;20060;-49
2022/05/17 07:43:04;;;;;;;5.75;4.00;;;20.60;63.00;;;;;;5042552;28;20053;-50
2022/05/17 07:45:32;;;;;;;7.20;3.97;;;20.70;62.70;;;;;;5044171;28;20115;-50
2022/05/17 07:48:02;;;;;;;8.90;4.03;;;20.80;62.60;;;;;;5042303;28;20057;-47
2022/05/17 07:50:29;;;;;;;5.65;3.58;;;20.90;62.50;;;;;;5042367;28;20056;-48
2022/05/17 07:52:57;;;;;;;6.88;4.18;;;21.00;62.40;;;;;;5043519;28;20410;-54
2022/05/17 07:55:25;;;;;;;7.10;4.63;;;21.00;62.50;;;;;;5043501;28;20057;-51
2022/05/17 07:57:54;;;;;;;8.07;5.00;;;21.20;62.40;;;;;;5043755;28;20489;-51
2022/05/17 08:00:26;;;;;;;10.73;4.88;;;21.20;62.30;;;;;;5044042;28;20064;-49
2022/05/17 08:02:56;;;;;;;9.98;5.70;;;21.30;62.40;;;;;;5042011;28;20897;-48
2022/05/17 08:05:27;;;;;;;10.75;5.15;;;21.40;62.20;;;;;;5044677;28;20067;-47
2022/05/17 08:07:54;;;;;;;12.02;6.25;;;21.50;62.20;;;;;;5044956;28;20053;-48
2022/05/17 08:10:22;;;;;;;11.90;5.18;;;21.60;62.30;;;;;;5043144;28;20053;-50
2022/05/17 08:12:51;;;;;;;8.15;5.10;;;21.70;61.70;;;;;;5041835;28;20052;-51
2022/05/17 08:15:23;;;;;;;13.10;5.32;;;21.80;61.40;;;;;;5043910;28;20063;-49
2022/05/17 08:17:51;;;;;;;9.18;5.00;;;21.80;61.10;;;;;;5043070;28;20049;-50
2022/05/17 08:20:19;;;;;;;12.55;5.15;;;21.90;61.20;;;;;;5042219;28;20424;-51
2022/05/17 08:22:47;;;;;;;7.93;5.05;;;22.00;60.90;;;;;;5044220;28;20052;-48
2022/05/17 08:28:04;;;;;;;11.15;5.55;;;22.20;59.90;;;;;;5051538;28;20071;-50
2022/05/17 08:30:34;;;;;;;9.77;5.00;;;22.20;59.70;;;;;;5042191;28;20064;-52
2022/05/17 08:33:19;;;;;;;13.55;5.57;;;22.30;59.30;;;;;;5037665;28;20669;-51
2022/05/17 08:35:50;;;;;;;13.70;4.88;;;22.30;59.20;;;;;;5042404;28;20516;-48
2022/05/17 08:38:22;;;;;;;14.23;5.72;;;22.40;59.30;;;;;;5042325;28;20508;-49
2022/05/17 08:40:57;;;;;;;11.70;5.38;;;22.40;59.30;;;;;;5042628;28;20071;-48
2022/05/17 08:43:29;;;;;;;13.35;5.30;;;22.50;59.20;;;;;;5042572;28;20045;-50
2022/05/17 08:46:11;;;;;;;14.45;5.57;;;22.60;59.30;;;;;;5044805;28;20048;-48
2022/05/17 08:48:49;;;;;;;10.38;4.47;;;22.60;58.80;;;;;;5041085;28;20059;-47
2022/05/17 08:51:25;;;;;;;16.15;5.10;;;22.70;58.60;;;;;;5042186;28;20053;-48
2022/05/17 08:53:53;;;;;;;16.77;5.70;;;22.70;58.30;;;;;;5043699;28;20041;-51
2022/05/17 08:56:21;;;;;;;10.20;4.72;;;22.80;58.10;;;;;;5042082;28;20543;-48
2022/05/17 08:58:51;;;;;;;14.13;5.20;;;22.80;58.20;;;;;;5040388;28;20492;-47
2022/05/17 09:01:25;;;;;;;8.00;4.55;;;22.80;57.90;;;;;;5042249;28;20049;-49
2022/05/17 09:04:07;;;;;;;14.90;4.75;;;22.80;57.80;;;;;;5041340;28;20056;-48
2022/05/17 09:06:45;;;;;;;10.98;4.10;;;22.90;57.90;;;;;;5041596;28;20414;-51
2022/05/17 09:09:20;;;;;;;15.48;3.72;;;22.90;58.10;;;;;;5043298;28;20493;-51
2022/05/17 09:11:52;;;;;;;8.32;3.55;;;22.90;57.60;;;;;;5042392;28;20416;-51
2022/05/17 09:14:21;;;;;;;10.10;3.97;;;22.90;57.50;;;;;;5044918;28;20049;-52
2022/05/17 09:16:57;;;;;;;12.18;3.53;;;23.00;57.30;;;;;;5043407;28;20056;-50
2022/05/17 09:19:28;;;;;;;6.47;3.13;;;23.00;56.80;;;;;;5044064;28;20692;-49
2022/05/17 09:21:59;;;;;;;12.15;3.35;;;23.10;57.10;;;;;;5042638;28;20052;-51
2022/05/17 09:24:31;;;;;;;5.93;2.22;;;23.10;57.10;;;;;;5043143;28;20511;-47
2022/05/17 09:27:05;;;;;;;4.88;2.05;;;23.20;55.40;;;;;;5044645;28;20128;-50
2022/05/17 09:29:38;;;;;;;5.38;2.55;;;23.30;54.30;;;;;;5042552;28;20437;-50
2022/05/17 09:32:11;;;;;;;7.45;2.60;;;23.30;54.60;;;;;;5039869;28;20056;-47
2022/05/17 09:34:40;;;;;;;8.07;3.37;;;23.40;54.80;;;;;;5039032;28;20057;-50
2022/05/17 09:37:11;;;;;;;4.28;2.45;;;23.50;55.40;;;;;;5040469;28;20052;-49
2022/05/17 09:39:38;;;;;;;5.65;2.67;;;23.60;55.20;;;;;;5043351;28;20056;-49
2022/05/17 09:42:10;;;;;;;5.03;2.20;;;23.60;55.30;;;;;;5039804;28;20424;-49
2022/05/17 09:44:43;;;;;;;4.68;2.38;;;23.70;55.10;;;;;;5042281;28;20060;-52
2022/05/17 09:47:27;;;;;;;7.80;2.25;;;23.80;54.40;;;;;;5036966;28;20056;-53
2022/05/17 09:52:44;;;;;;;3.72;1.67;;;24.00;53.20;;;;;;5042656;28;20056;-49
2022/05/17 09:55:22;;;;;;;6.45;2.20;;;24.10;52.90;;;;;;5042155;28;20053;-50
2022/05/17 09:57:54;;;;;;;5.68;1.80;;;24.20;52.60;;;;;;5038029;28;20500;-51
2022/05/17 10:00:24;;;;;;;3.42;1.73;;;24.30;52.60;;;;;;5040343;28;20652;-48
2022/05/17 10:02:57;;;;;;;4.40;1.77;;;24.40;52.10;;;;;;5039163;28;20732;-48
2022/05/17 10:05:27;;;;;;;7.72;2.00;;;24.50;51.70;;;;;;5041670;28;20060;-50
2022/05/17 10:07:58;;;;;;;6.43;1.75;;;24.50;51.40;;;;;;5039580;28;20053;-51
2022/05/17 10:10:35;;;;;;;6.95;2.00;;;24.60;51.60;;;;;;5040845;28;20421;-50
2022/05/17 10:13:23;;;;;;;3.47;1.73;;;24.60;51.10;;;;;;5039301;28;20060;-50
2022/05/17 10:15:57;;;;;;;4.00;1.55;;;24.70;50.80;;;;;;5039941;28;20052;-48
2022/05/17 10:18:35;;;;;;;5.35;2.15;;;24.70;50.20;;;;;;5037730;28;20063;-51
2022/05/17 10:21:10;;;;;;;3.65;1.58;;;24.70;49.90;;;;;;5039715;28;20068;-47
2022/05/17 10:23:42;;;;;;;5.00;2.15;;;24.80;49.50;;;;;;5038556;28;20057;-47
2022/05/17 10:26:13;;;;;;;7.18;2.08;;;24.80;49.90;;;;;;5039411;28;20060;-49
2022/05/17 10:28:46;;;;;;;4.32;1.65;;;24.90;50.40;;;;;;5040652;28;20058;-47
2022/05/17 10:31:23;;;;;;;4.20;1.75;;;24.90;50.20;;;;;;5038656;28;20420;-50
2022/05/17 10:34:00;;;;;;;5.95;1.60;;;25.00;49.80;;;;;;5038699;28;20049;-48
2022/05/17 10:36:33;;;;;;;6.47;1.77;;;25.10;49.60;;;;;;5041841;28;20060;-52
2022/05/17 10:39:08;;;;;;;3.67;1.50;;;25.20;49.00;;;;;;5040019;28;20057;-47
2022/05/17 10:41:36;;;;;;;4.13;1.40;;;25.30;49.00;;;;;;5040129;28;21235;-47
2022/05/17 10:44:04;;;;;;;5.93;1.67;;;25.30;49.10;;;;;;5043646;28;20059;-50
2022/05/17 10:46:36;;;;;;;3.28;1.40;;;25.40;48.90;;;;;;5042922;28;20409;-51
2022/05/17 10:49:20;;;;;;;3.95;1.38;;;25.40;48.60;;;;;;5042981;28;20067;-53
2022/05/17 10:51:58;;;;;;;7.32;1.50;;;25.50;47.80;;;;;;5042136;28;20063;-47
2022/05/17 10:54:38;;;;;;;3.05;1.20;;;25.60;47.90;;;;;;5045298;28;20417;-51
2022/05/17 10:57:17;;;;;;;2.58;1.15;;;25.60;47.70;;;;;;5043544;28;20061;-52
2022/05/17 10:59:52;;;;;;;2.83;1.15;;;25.70;47.50;;;;;;5044401;28;20053;-52
2022/05/17 11:02:48;;;;;;;2.28;0.93;;;25.80;47.40;;;;;;5044106;28;20057;-49
2022/05/17 11:05:27;;;;;;;3.78;1.30;;;25.80;46.80;;;;;;5046768;28;20064;-47
2022/05/17 11:08:03;;;;;;;4.88;1.00;;;25.90;46.30;;;;;;5048542;28;20057;-49
2022/05/17 11:10:41;;;;;;;3.38;1.10;;;25.90;46.40;;;;;;5049306;28;20056;-48
2022/05/17 11:13:16;;;;;;;3.97;1.45;;;26.00;46.70;;;;;;5045950;28;20208;-47
2022/05/17 11:15:50;;;;;;;2.97;1.00;;;26.00;46.00;;;;;;5045525;28;20367;-50
2022/05/17 11:18:24;;;;;;;3.35;1.40;;;26.00;45.80;;;;;;5027976;28;20063;-49
2022/05/17 11:20:59;;;;;;;4.65;0.98;;;26.10;45.90;;;;;;5047382;28;20515;-52
2022/05/17 11:23:43;;;;;;;2.55;1.20;;;26.00;45.60;;;;;;5047331;28;20518;-48
2022/05/17 11:26:43;;;;;;;;;;;26.00;45.10;;;;;;5046655;28;20060;-53
2022/05/17 11:29:40;;;;;;;4.47;1.33;;;26.10;46.00;;;;;;4981209;28;20430;-47
2022/05/17 11:32:22;;;;;;;1.50;0.80;;;26.10;44.90;;;;;;4982654;28;20061;-51
2022/05/17 11:34:53;;;;;;;2.63;1.17;;;26.10;44.90;;;;;;5028993;28;20082;-51
2022/05/17 11:37:48;;;;;;;3.85;1.20;;;26.10;45.00;;;;;;5046200;28;20053;-48
2022/05/17 11:40:53;;;;;;;2.42;0.80;;;26.20;44.70;;;;;;5045351;28;20821;-49
2022/05/17 11:43:42;;;;;;;2.17;0.88;;;26.10;44.60;;;;;;5045446;28;20049;-49
2022/05/17 11:46:52;;;;;;;2.95;0.93;;;26.10;44.60;;;;;;5045921;28;20064;-51
2022/05/17 11:49:45;;;;;;;4.43;0.85;;;26.10;44.50;;;;;;5044400;28;20056;-51
2022/05/17 11:52:21;;;;;;;2.58;0.80;;;26.20;44.20;;;;;;5044209;28;20045;-48
2022/05/17 11:54:51;;;;;;;1.83;0.60;;;26.10;44.30;;;;;;5044543;28;20068;-47
2022/05/17 11:58:03;;;;;;;3.60;1.17;;;26.10;44.30;;;;;;5043805;28;20516;-47
2022/05/17 12:00:43;;;;;;;1.40;0.52;;;26.10;43.90;;;;;;5044849;28;20060;-52
2022/05/17 12:03:50;;;;;;;3.92;0.70;;;26.20;43.70;;;;;;5041850;28;20061;-51
2022/05/17 12:06:30;;;;;;;2.70;0.75;;;26.20;43.70;;;;;;5044014;28;20057;-49
2022/05/17 12:08:57;;;;;;;1.38;0.65;;;26.20;43.40;;;;;;5044778;28;20056;-49
2022/05/17 12:11:39;;;;;;;2.10;0.80;;;26.20;44.20;;;;;;5044809;28;20175;-50
2022/05/17 12:14:15;;;;;;;2.53;0.88;;;26.30;43.50;;;;;;5043760;28;20072;-50
2022/05/17 12:16:50;;;;;;;3.65;0.88;;;26.30;43.60;;;;;;5025358;28;20053;-50
2022/05/17 12:19:26;;;;;;;3.53;0.90;;;26.30;43.70;;;;;;5043495;28;20068;-50
2022/05/17 12:21:58;;;;;;;2.50;0.80;;;26.40;43.70;;;;;;5043849;28;20056;-47
2022/05/17 12:24:46;;;;;;;2.78;0.77;;;26.40;43.30;;;;;;5043846;28;20062;-51
2022/05/17 12:27:23;;;;;;;2.05;0.80;;;26.40;43.10;;;;;;5042814;28;20057;-47
2022/05/17 12:32:47;;;;;;;2.35;0.93;;;26.50;43.20;;;;;;5048158;28;20051;-47
2022/05/17 12:35:14;;;;;;;2.53;1.05;;;26.50;43.30;;;;;;5044049;28;20052;-47
2022/05/17 12:37:44;;;;;;;1.67;0.77;;;26.50;43.10;;;;;;5042896;28;20520;-51
2022/05/17 12:43:07;;;;;;;2.28;0.70;;;26.50;42.50;;;;;;5044015;28;20603;-52
2022/05/17 12:45:39;;;;;;;5.40;0.73;;;26.50;42.70;;;;;;5044713;28;20044;-48
2022/05/17 12:48:34;;;;;;;3.22;0.82;;;26.50;42.40;;;;;;5041503;28;20052;-54
2022/05/17 12:51:04;;;;;;;4.32;1.13;;;26.50;42.60;;;;;;5045289;28;20394;-47
2022/05/17 12:53:39;;;;;;;3.72;0.70;;;26.50;42.90;;;;;;5043665;28;20057;-49
2022/05/17 12:56:09;;;;;;;2.10;0.80;;;26.50;42.30;;;;;;5042017;28;20056;-49
2022/05/17 12:58:39;;;;;;;4.28;0.80;;;26.50;42.70;;;;;;5041871;28;20053;-47
2022/05/17 13:01:08;;;;;;;2.40;0.90;;;26.50;42.60;;;;;;5043000;28;20424;-50
2022/05/17 13:03:44;;;;;;;2.22;0.73;;;26.50;42.50;;;;;;5042044;28;20485;-49
2022/05/17 13:06:11;;;;;;;2.30;0.70;;;26.40;42.20;;;;;;5041280;28;20045;-47
2022/05/17 13:08:40;;;;;;;2.40;0.82;;;26.50;42.20;;;;;;5042579;28;20053;-48
2022/05/17 13:11:12;;;;;;;1.17;0.70;;;26.50;42.00;;;;;;5043174;28;20056;-48
2022/05/17 13:13:41;;;;;;;1.63;0.50;;;26.50;42.20;;;;;;5040515;28;20079;-50
2022/05/17 13:16:13;;;;;;;2.33;0.60;;;26.50;42.20;;;;;;5043092;28;20048;-49
2022/05/17 13:18:45;;;;;;;0.60;0.30;;;26.50;41.40;;;;;;5040971;28;20057;-50
2022/05/17 13:21:21;;;;;;;2.15;0.50;;;26.50;41.70;;;;;;5041842;28;20053;-49
2022/05/17 13:23:50;;;;;;;1.00;0.57;;;26.60;41.30;;;;;;5042830;28;20385;-49
2022/05/17 13:26:26;;;;;;;3.33;1.70;;;26.70;41.70;;;;;;5042469;28;20056;-50